Stuntz, Minnesota
Current Conditions -  °F | °C
As of 2:53 AM on Friday 31 Oct 2014 (Local Time) from KHIB Reporting Station
Overcast Overcast  
Wind Chill: 15°   Ceiling: 2700
Heat Index: 27°   Visibility: 10mi
Dew Point: 16°   Wind: 15mph
Humidity: 63%   Direction: 360°N
Pressure: 30.46"   Gusts: 25mph
Location:  47.4158°N, 93.0053°W
Report Text: KHIB 310753Z AUTO 36013G22KT 10SM OVC027 M03/M09 A3046 RMK AO2 SLP333 T10281089
Loading
Personal Weather Stations






























Interactive Weather Map
Tropical Storm Tracking
New forecast layout! Learn more

10-Day Weather Forecast

Advertisements
Track Severe Weather on mobile